Huvudsida
METAR-TAF:

METAR-TAF

Flygplatser :

Kemi, Finland

Kemi-Torneå flygplats

latitud: 65-47N, longitud: 024-35E, höjd: 15 m

Aktuellt väderrapport

Denna rapport gjordes för 37 minuter sedan, klockan 02:50 UTC
Vind 4 kt från nord/nordost
Temperatur -14°C
Fuktighet 92%
Tryck 1004 hPa
Sikt 10 km eller mer
Få moln på en höjd av 3300 ft
Brutna moln på en höjd av 4100 ft

METAR: EFKE 190250Z AUTO 02004KT 9999 FEW033 BKN041 M14/M15 Q1004

Tid: 05:27 (03:27 UTC)

Väderprognos

Denna rapport gjordes för 7 timmar och 0 minuter sedan, klockan 20:27 UTC
Prognos gäller från 18 kl. 21 UTC till 18 kl. 24 UTC
Vind 8 kt från ost/nordost
Sikt 10 km eller mer
Brutna moln på en höjd av 3000 ft
lätt snö
Temporärt
från 18 kl. 21 UTC till 18 kl. 24 UTC
Sikt: 2500 m

TAF: EFKE 182027Z 1821/1824 06008KT 9999 -SN BKN030 TEMPO 1821/1824 2500

Aktuella väderrapporter och prognoser från 4000 flygplatser (METAR- och TAF-rapporter).

De tillgängliga stationerna syns som gula och röda prickar på kartan.

För musen över prickarna för att se namnen på stationerna.

Klicka sedan för att få väderrapporter och prognoser.

För att ändra kartan: Klicka på de gröna knapparna med ett svart kors på för att zooma in; den gröna knappen med ett streck på för att zooma ut; eller på de gröna pilarna för angränsande kartor.


METAR-TAF: